JFK weather

John F Kennedy International Airport
New York, New York, United States

Public forecast

Using degrees Fahrenheit for public forecast. Weather courtesy of forecast.io.

METAR (pilot weather report)

Retrieved 2017/06/28 21:51 UTC (10 minutes ago):

KJFK 282151Z 19014KT 10SM SCT080 SCT250 23/16 A3009 RMK AO2 WSHFT 2102 SLP191 T02280156

TAF (pilot weather forecast)

Retrieved 2017/06/28 18:34 UTC (3 hours ago):

TAF KJFK 281730Z 2818/2924 24011G16KT P6SM FEW050 SCT250 FM282100 22012G20KT P6SM FEW050 SCT250 FM290000 22012KT P6SM FEW050 FM290600 23008KT P6SM SCT150 FM291600 20012G20KT P6SM SCT060 SCT250 FM291900 19020G26KT P6SM FEW060 SCT250